createdAt,value
2018-09-20T00:02:08.221Z,98769.60
2018-09-20T00:04:20.439Z,98775.25
2018-09-20T00:06:32.662Z,98775.52
2018-09-20T00:08:44.877Z,98779.15
2018-09-20T00:10:57.074Z,98775.08
2018-09-20T00:13:09.311Z,98772.59
2018-09-20T00:15:21.515Z,98773.56
2018-09-20T00:17:33.711Z,98772.73
2018-09-20T00:19:45.957Z,98780.17
2018-09-20T00:21:58.162Z,98773.02
2018-09-20T00:24:10.408Z,98773.50
2018-09-20T00:26:22.635Z,98770.52
2018-09-20T00:28:34.820Z,98770.04
2018-09-20T00:30:47.031Z,98769.69
2018-09-20T00:32:59.211Z,98769.11
2018-09-20T00:35:11.399Z,98765.89
2018-09-20T00:37:23.611Z,98761.12
2018-09-20T00:39:35.823Z,98759.70
2018-09-20T00:41:48.067Z,98764.23
2018-09-20T00:44:00.255Z,98762.43
2018-09-20T00:46:12.446Z,98765.78
2018-09-20T00:48:24.639Z,98766.40
2018-09-20T00:50:37.015Z,98763.53
2018-09-20T00:52:49.216Z,98768.44
2018-09-20T00:55:01.411Z,98766.87
2018-09-20T00:57:13.619Z,98760.07
2018-09-20T00:59:25.818Z,98764.97
2018-09-20T01:01:37.991Z,98762.91
2018-09-20T01:03:50.214Z,98763.25
2018-09-20T01:06:02.488Z,98763.17
2018-09-20T01:08:14.775Z,98759.10
2018-09-20T01:10:26.974Z,98763.04
2018-09-20T01:12:39.185Z,98756.69
2018-09-20T01:14:51.354Z,98753.95
2018-09-20T01:17:03.540Z,98759.09
2018-09-20T01:19:15.746Z,98753.14
2018-09-20T01:21:27.968Z,98757.91
2018-09-20T01:23:40.146Z,98753.01
2018-09-20T01:25:52.386Z,98758.00
2018-09-20T01:28:04.726Z,98750.53
2018-09-20T01:30:16.890Z,98751.60
2018-09-20T01:32:29.050Z,98757.80
2018-09-20T01:34:41.238Z,98754.45
2018-09-20T01:36:53.402Z,98759.56
2018-09-20T01:39:10.215Z,98752.55
2018-09-20T01:41:22.414Z,98757.31
2018-09-20T01:43:34.611Z,98752.30
2018-09-20T01:45:46.772Z,98755.30
2018-09-20T01:47:58.978Z,98752.40
2018-09-20T01:50:11.137Z,98753.47
2018-09-20T01:52:23.376Z,98756.09
2018-09-20T01:54:35.542Z,98749.31
2018-09-20T01:56:47.755Z,98756.09
2018-09-20T01:58:59.990Z,98751.91
2018-09-20T02:01:12.171Z,98756.48
2018-09-20T02:03:24.368Z,98758.48
2018-09-20T02:05:36.626Z,98756.23
2018-09-20T02:07:48.804Z,98759.20
2018-09-20T02:10:01.002Z,98756.36
2018-09-20T02:12:13.275Z,98759.33
2018-09-20T02:14:25.455Z,98759.95
2018-09-20T02:16:37.687Z,98757.66
2018-09-20T02:18:49.873Z,98755.63
2018-09-20T02:21:02.086Z,98759.20
2018-09-20T02:23:14.262Z,98762.20
2018-09-20T02:25:26.488Z,98755.52
2018-09-20T02:27:38.677Z,98758.27
2018-09-20T02:29:52.172Z,98761.74
2018-09-20T02:32:04.409Z,98757.20
2018-09-20T02:34:20.162Z,98768.19
2018-09-20T02:36:32.653Z,98758.16
2018-09-20T02:38:55.077Z,98762.67
2018-09-20T02:41:07.515Z,98760.53
2018-09-20T02:43:19.755Z,98762.91
2018-09-20T02:45:32.030Z,98759.35
2018-09-20T02:47:44.232Z,98764.47
2018-09-20T02:49:56.415Z,98769.23
2018-09-20T02:52:08.664Z,98773.55
2018-09-20T02:54:20.863Z,98771.03
2018-09-20T02:56:33.091Z,98774.48
2018-09-20T02:58:45.315Z,98772.57
2018-09-20T03:00:57.513Z,98770.19
2018-09-20T03:03:09.695Z,98765.63
2018-09-20T03:05:21.951Z,98768.96
2018-09-20T03:07:34.166Z,98758.60
2018-09-20T03:09:46.395Z,98762.05
2018-09-20T03:11:58.628Z,98762.53
2018-09-20T03:14:10.839Z,98756.94
2018-09-20T03:16:23.022Z,98755.95
2018-09-20T03:18:35.186Z,98764.53
2018-09-20T03:20:47.407Z,98763.60
2018-09-20T03:22:59.754Z,98764.53
2018-09-20T03:25:11.990Z,98760.22
2018-09-20T03:27:24.165Z,98764.03
2018-09-20T03:29:36.381Z,98760.09
2018-09-20T03:31:48.597Z,98755.33
2018-09-20T03:34:00.845Z,98754.37
2018-09-20T03:36:13.036Z,98754.27
2018-09-20T03:38:25.249Z,98759.03
2018-09-20T03:40:37.423Z,98756.06
2018-09-20T03:42:49.606Z,98759.81
2018-09-20T03:45:01.801Z,98758.37
2018-09-20T03:47:13.986Z,98757.54
2018-09-20T03:49:26.187Z,98759.55
2018-09-20T03:51:38.381Z,98764.41
2018-09-20T03:53:50.538Z,98767.64
2018-09-20T03:56:02.723Z,98763.33
2018-09-20T03:58:14.940Z,98767.64
2018-09-20T04:00:27.123Z,98769.91
2018-09-20T04:02:39.370Z,98767.42
2018-09-20T04:04:51.567Z,98773.14
2018-09-20T04:07:03.777Z,98777.20
2018-09-20T04:09:15.984Z,98778.42
2018-09-20T04:11:28.184Z,98773.87
2018-09-20T04:13:40.429Z,98776.72
2018-09-20T04:15:52.635Z,98777.91
2018-09-20T04:18:04.930Z,98770.62
2018-09-20T04:20:17.133Z,98775.12
2018-09-20T04:22:29.335Z,98770.19
2018-09-20T04:24:41.566Z,98767.88
2018-09-20T04:26:53.763Z,98766.44
2018-09-20T04:29:06.032Z,98764.91
2018-09-20T04:31:18.235Z,98768.62
2018-09-20T04:33:30.456Z,98762.86
2018-09-20T04:35:42.642Z,98764.52
2018-09-20T04:37:54.821Z,98771.06
2018-09-20T04:40:07.064Z,98770.80
2018-09-20T04:42:19.280Z,98774.64
2018-09-20T04:44:31.475Z,98774.52
2018-09-20T04:46:43.675Z,98779.18
2018-09-20T04:48:55.888Z,98781.20
2018-09-20T04:51:08.107Z,98784.64
2018-09-20T04:53:20.379Z,98789.80
2018-09-20T04:55:32.500Z,98787.05
2018-09-20T04:57:44.684Z,98795.17
2018-09-20T04:59:56.962Z,98793.50
2018-09-20T05:02:09.180Z,98793.98
2018-09-20T05:04:21.385Z,98793.12
2018-09-20T05:06:33.627Z,98790.84
2018-09-20T05:08:45.847Z,98787.88
2018-09-20T05:10:58.052Z,98789.66
2018-09-20T05:13:10.328Z,98789.67
2018-09-20T05:15:22.558Z,98788.27
2018-09-20T05:17:34.805Z,98792.55
2018-09-20T05:19:47.069Z,98791.36
2018-09-20T05:21:59.274Z,98788.27
2018-09-20T05:24:11.468Z,98789.92
2018-09-20T05:26:23.681Z,98791.02
2018-09-20T05:28:35.972Z,98793.20
2018-09-20T05:30:48.172Z,98794.64
2018-09-20T05:33:00.394Z,98793.72
2018-09-20T05:35:12.633Z,98796.83
2018-09-20T05:37:24.859Z,98798.27
2018-09-20T05:39:37.089Z,98800.70
2018-09-20T05:41:49.286Z,98804.92
2018-09-20T05:44:01.600Z,98805.66
2018-09-20T05:46:13.784Z,98805.20
2018-09-20T05:48:26.012Z,98806.80
2018-09-20T05:50:38.270Z,98809.43
2018-09-20T05:52:50.595Z,98805.86
2018-09-20T05:55:02.799Z,98817.45
2018-09-20T05:57:15.651Z,98819.36
2018-09-20T05:59:27.830Z,98823.54
2018-09-20T06:01:40.024Z,98822.63
2018-09-20T06:03:52.254Z,98829.42
2018-09-20T06:06:04.484Z,98825.56
2018-09-20T06:08:16.686Z,98822.67
2018-09-20T06:10:28.888Z,98828.23
2018-09-20T06:12:41.243Z,98825.88
2018-09-20T06:14:53.488Z,98826.95
2018-09-20T06:17:05.766Z,98825.98
2018-09-20T06:19:17.980Z,98824.19
2018-09-20T06:21:30.183Z,98832.66
2018-09-20T06:23:42.370Z,98829.69
2018-09-20T06:25:54.578Z,98829.99
2018-09-20T06:28:06.756Z,98828.08
2018-09-20T06:30:18.948Z,98830.88
2018-09-20T06:32:31.202Z,98825.08
2018-09-20T06:34:43.482Z,98822.69
2018-09-20T06:36:55.697Z,98819.94
2018-09-20T06:39:09.500Z,98820.81
2018-09-20T06:41:21.734Z,98824.58
2018-09-20T06:43:33.930Z,98824.36
2018-09-20T06:45:46.126Z,98824.95
2018-09-20T06:47:58.356Z,98826.79
2018-09-20T06:50:10.799Z,98834.95
2018-09-20T06:52:23.024Z,98837.38
2018-09-20T06:54:35.212Z,98833.51
2018-09-20T06:56:47.394Z,98833.40
2018-09-20T06:58:59.627Z,98829.52
2018-09-20T07:01:11.875Z,98827.72
2018-09-20T07:03:24.138Z,98826.98
2018-09-20T07:05:36.303Z,98813.21
2018-09-20T07:07:48.519Z,98814.25
2018-09-20T07:10:00.903Z,98814.91
2018-09-20T07:12:13.126Z,98810.96
2018-09-20T07:14:25.301Z,98813.13
2018-09-20T07:16:37.522Z,98813.36
2018-09-20T07:18:49.718Z,98816.11
2018-09-20T07:21:02.344Z,98810.00
2018-09-20T07:23:14.576Z,98809.85
2018-09-20T07:25:26.799Z,98813.39
2018-09-20T07:27:38.999Z,98814.81
2018-09-20T07:29:51.179Z,98815.72
2018-09-20T07:32:03.407Z,98814.06
2018-09-20T07:34:15.599Z,98819.06
2018-09-20T07:36:28.014Z,98816.89
2018-09-20T07:38:40.289Z,98808.75
2018-09-20T07:43:48.156Z,98812.77
2018-09-20T07:46:00.360Z,98816.89
2018-09-20T07:48:12.586Z,98817.02
2018-09-20T07:50:24.875Z,98818.30
2018-09-20T07:52:37.086Z,98812.63
2018-09-20T07:54:49.320Z,98813.70
2018-09-20T07:57:01.568Z,98810.01
2018-09-20T07:59:13.839Z,98809.02
2018-09-20T08:01:26.097Z,98815.03
2018-09-20T08:03:38.239Z,98815.90
2018-09-20T08:05:50.472Z,98812.92
2018-09-20T08:08:02.740Z,98814.55
2018-09-20T08:10:14.953Z,98820.47
2018-09-20T08:12:27.152Z,98818.77
2018-09-20T08:14:39.366Z,98815.12
2018-09-20T08:16:51.600Z,98819.80
2018-09-20T08:19:03.843Z,98811.53
2018-09-20T08:21:16.094Z,98812.86
2018-09-20T08:23:28.314Z,98812.62
2018-09-20T08:25:40.537Z,98814.53
2018-09-20T08:27:52.813Z,98811.11
2018-09-20T08:30:05.860Z,98810.29
2018-09-20T08:32:18.107Z,98800.97
2018-09-20T08:34:30.311Z,98809.30
2018-09-20T08:36:42.503Z,98808.96
2018-09-20T08:38:54.772Z,98811.75
2018-09-20T08:41:07.047Z,98807.56
2018-09-20T08:43:19.219Z,98812.36
2018-09-20T08:45:31.429Z,98799.72
2018-09-20T08:47:43.634Z,98801.53
2018-09-20T08:49:55.885Z,98803.22
2018-09-20T08:52:08.127Z,98809.28
2018-09-20T08:54:20.376Z,98807.77
2018-09-20T08:56:32.576Z,98805.67
2018-09-20T08:58:44.742Z,98810.40
2018-09-20T09:00:56.984Z,98806.97
2018-09-20T09:03:09.203Z,98809.83
2018-09-20T09:05:21.427Z,98811.31
2018-09-20T09:07:33.715Z,98803.53
2018-09-20T09:09:45.889Z,98804.09
2018-09-20T09:11:58.228Z,98804.28
2018-09-20T09:14:10.441Z,98801.78
2018-09-20T09:16:22.630Z,98792.44
2018-09-20T09:18:34.841Z,98792.20
2018-09-20T09:20:47.051Z,98788.47
2018-09-20T09:22:59.322Z,98790.99
2018-09-20T09:25:11.486Z,98790.99
2018-09-20T09:27:23.671Z,98790.63
2018-09-20T09:29:35.918Z,98786.77
2018-09-20T09:31:48.214Z,98785.91
2018-09-20T09:34:00.455Z,98789.83
2018-09-20T09:36:12.741Z,98787.41
2018-09-20T09:38:25.020Z,98782.97
2018-09-20T09:40:37.210Z,98784.14
2018-09-20T09:42:49.405Z,98776.58
2018-09-20T09:45:01.606Z,98775.63
2018-09-20T09:47:13.812Z,98775.80
2018-09-20T09:49:26.083Z,98764.42
2018-09-20T09:51:38.299Z,98768.30
2018-09-20T09:53:50.639Z,98761.25
2018-09-20T09:56:02.826Z,98762.65
2018-09-20T09:58:15.018Z,98761.69
2018-09-20T10:00:32.426Z,98758.34
2018-09-20T10:02:44.628Z,98758.58
2018-09-20T10:04:57.231Z,98753.54
2018-09-20T10:07:09.539Z,98755.86
2018-09-20T10:09:21.743Z,98753.53
2018-09-20T10:11:33.978Z,98750.97
2018-09-20T10:13:46.146Z,98745.08
2018-09-20T10:15:58.435Z,98740.62
2018-09-20T10:18:10.635Z,98737.73
2018-09-20T10:20:22.871Z,98739.81
2018-09-20T10:22:35.072Z,98736.45
2018-09-20T10:24:47.279Z,98733.48
2018-09-20T10:26:59.504Z,98731.69
2018-09-20T10:29:11.739Z,98725.19
2018-09-20T10:31:23.981Z,98724.83
2018-09-20T10:33:36.203Z,98722.91
2018-09-20T10:35:48.412Z,98726.40
2018-09-20T10:38:00.620Z,98732.70
2018-09-20T10:40:12.898Z,98726.40
2018-09-20T10:42:25.140Z,98717.16
2018-09-20T10:44:37.399Z,98721.53
2018-09-20T10:46:49.632Z,98720.63
2018-09-20T10:49:01.903Z,98717.08
2018-09-20T10:51:14.136Z,98712.59
2018-09-20T10:53:26.388Z,98711.77
2018-09-20T10:55:38.621Z,98704.00
2018-09-20T10:57:50.846Z,98701.94
2018-09-20T11:00:03.160Z,98702.07
2018-09-20T11:02:15.426Z,98698.66
2018-09-20T11:04:27.607Z,98694.78
2018-09-20T11:06:39.846Z,98695.50
2018-09-20T11:08:52.099Z,98682.64
2018-09-20T11:11:04.435Z,98689.24
2018-09-20T11:13:16.595Z,98681.97
2018-09-20T11:15:28.791Z,98685.59
2018-09-20T11:17:41.043Z,98678.52
2018-09-20T11:19:53.367Z,98675.37
2018-09-20T11:22:05.606Z,98674.45
2018-09-20T11:24:17.847Z,98670.27
2018-09-20T11:26:30.079Z,98665.08
2018-09-20T11:28:42.299Z,98668.69
2018-09-20T11:30:54.580Z,98664.41
2018-09-20T11:33:06.839Z,98661.42
2018-09-20T11:35:19.068Z,98660.15
2018-09-20T11:37:31.278Z,98650.23
2018-09-20T11:39:43.502Z,98655.98
2018-09-20T11:41:55.696Z,98650.45
2018-09-20T11:44:08.060Z,98651.81
2018-09-20T11:46:20.336Z,98642.94
2018-09-20T11:48:32.697Z,98642.45
2018-09-20T11:50:44.919Z,98637.59
2018-09-20T11:52:57.143Z,98634.13
2018-09-20T11:55:09.381Z,98629.69
2018-09-20T11:57:21.641Z,98630.52
2018-09-20T11:59:33.851Z,98627.69
2018-09-20T12:01:46.088Z,98629.66
2018-09-20T12:03:58.260Z,98623.70
2018-09-20T12:06:10.483Z,98624.13
2018-09-20T12:08:22.699Z,98621.09
2018-09-20T12:10:34.954Z,98616.08
2018-09-20T12:12:47.575Z,98606.20
2018-09-20T12:14:59.824Z,98607.02
2018-09-20T12:17:12.043Z,98607.14
2018-09-20T12:19:24.286Z,98597.48
2018-09-20T12:21:36.479Z,98594.11
2018-09-20T12:23:48.732Z,98594.20
2018-09-20T12:26:01.047Z,98588.66
2018-09-20T12:28:13.212Z,98583.49
2018-09-20T12:30:25.454Z,98588.97
2018-09-20T12:32:37.689Z,98584.13
2018-09-20T12:34:49.923Z,98576.80
2018-09-20T12:37:02.142Z,98571.77
2018-09-20T12:39:14.697Z,98571.75
2018-09-20T12:41:26.915Z,98565.95
2018-09-20T12:43:39.187Z,98567.09
2018-09-20T12:45:51.426Z,98559.87
2018-09-20T12:48:03.704Z,98552.28
2018-09-20T12:50:15.922Z,98550.42
2018-09-20T12:52:28.206Z,98551.06
2018-09-20T12:54:40.440Z,98539.72
2018-09-20T12:56:52.663Z,98538.69
2018-09-20T12:59:04.999Z,98540.78
2018-09-20T13:01:18.018Z,98533.67
2018-09-20T13:03:30.311Z,98535.91
2018-09-20T13:05:42.567Z,98530.40
2018-09-20T13:07:54.815Z,98523.72
2018-09-20T13:10:07.052Z,98520.22
2018-09-20T13:12:19.274Z,98520.22
2018-09-20T13:14:31.479Z,98516.50
2018-09-20T13:16:43.712Z,98510.10
2018-09-20T13:18:55.923Z,98509.09
2018-09-20T13:21:08.171Z,98499.41
2018-09-20T13:23:20.375Z,98498.98
2018-09-20T13:25:32.674Z,98494.95
2018-09-20T13:27:44.882Z,98502.88
2018-09-20T13:29:57.284Z,98502.45
2018-09-20T13:32:09.518Z,98497.91
2018-09-20T13:34:21.758Z,98488.57
2018-09-20T13:36:34.030Z,98482.09
2018-09-20T13:38:46.264Z,98480.34
2018-09-20T13:40:58.543Z,98481.50
2018-09-20T13:43:10.825Z,98482.62
2018-09-20T13:45:23.095Z,98476.23
2018-09-20T13:47:35.407Z,98473.78
2018-09-20T13:49:47.635Z,98473.77
2018-09-20T13:51:59.864Z,98474.39
2018-09-20T13:54:12.133Z,98470.45
2018-09-20T13:56:24.564Z,98471.39
2018-09-20T13:58:37.268Z,98471.91
2018-09-20T14:00:49.495Z,98467.59
2018-09-20T14:03:01.727Z,98469.33
2018-09-20T14:05:13.992Z,98459.97
2018-09-20T14:07:26.231Z,98464.92
2018-09-20T14:09:38.458Z,98452.37
2018-09-20T14:11:50.735Z,98454.01
2018-09-20T14:14:02.999Z,98459.45
2018-09-20T14:16:15.233Z,98458.42
2018-09-20T14:18:27.500Z,98456.30
2018-09-20T14:20:39.735Z,98454.43
2018-09-20T14:22:52.008Z,98456.80
2018-09-20T14:25:04.272Z,98445.67
2018-09-20T14:27:16.495Z,98453.61
2018-09-20T14:29:28.820Z,98444.84
2018-09-20T14:31:40.983Z,98448.02
2018-09-20T14:33:53.203Z,98437.97
2018-09-20T14:36:05.491Z,98446.59
2018-09-20T14:38:17.712Z,98442.19
2018-09-20T14:40:29.987Z,98444.25
2018-09-20T14:42:42.230Z,98431.47
2018-09-20T14:44:54.435Z,98432.39
2018-09-20T14:47:06.733Z,98431.78
2018-09-20T14:49:18.959Z,98435.67
2018-09-20T14:51:31.405Z,98424.16
2018-09-20T14:53:43.650Z,98420.45
2018-09-20T14:55:56.195Z,98415.93
2018-09-20T14:58:08.438Z,98415.53
2018-09-20T15:00:20.675Z,98418.20
2018-09-20T15:02:32.906Z,98415.11
2018-09-20T15:04:45.144Z,98416.42
2018-09-20T15:06:57.386Z,98404.83
2018-09-20T15:09:11.313Z,98407.50
2018-09-20T15:11:23.547Z,98407.56
2018-09-20T15:13:35.789Z,98407.05
2018-09-20T15:15:48.037Z,98408.39
2018-09-20T15:18:00.302Z,98397.70
2018-09-20T15:20:12.539Z,98411.34
2018-09-20T15:22:24.767Z,98407.12
2018-09-20T15:24:37.103Z,98401.34
2018-09-20T15:26:49.278Z,98398.22
2018-09-20T15:29:01.532Z,98396.55
2018-09-20T15:31:13.756Z,98397.64
2018-09-20T15:33:25.980Z,98399.06
2018-09-20T15:35:38.230Z,98394.12
2018-09-20T15:37:50.446Z,98392.66
2018-09-20T15:40:02.806Z,98388.47
2018-09-20T15:42:14.909Z,98386.50
2018-09-20T15:44:27.175Z,98387.75
2018-09-20T15:46:39.387Z,98384.13
2018-09-20T15:48:51.749Z,98387.83
2018-09-20T15:51:03.985Z,98381.55
2018-09-20T15:53:16.198Z,98386.46
2018-09-20T15:55:28.420Z,98382.03
2018-09-20T15:57:40.603Z,98380.82
2018-09-20T15:59:52.854Z,98381.59
2018-09-20T16:02:05.896Z,98373.38
2018-09-20T16:04:18.170Z,98377.64
2018-09-20T16:06:30.455Z,98374.75
2018-09-20T16:08:42.670Z,98376.91
2018-09-20T16:10:54.947Z,98370.58
2018-09-20T16:13:07.158Z,98372.65
2018-09-20T16:15:19.376Z,98369.59
2018-09-20T16:17:31.572Z,98371.87
2018-09-20T16:19:43.877Z,98372.51
2018-09-20T16:21:56.189Z,98374.75
2018-09-20T16:24:08.377Z,98369.28
2018-09-20T16:26:20.615Z,98366.88
2018-09-20T16:28:44.628Z,98356.68
2018-09-20T16:31:08.073Z,98355.95
2018-09-20T16:33:36.176Z,98354.48
2018-09-20T16:36:02.924Z,98357.16
2018-09-20T16:38:32.915Z,98355.56
2018-09-20T16:40:46.815Z,98351.95
2018-09-20T16:42:59.053Z,98350.31
2018-09-20T16:45:11.311Z,98349.37
2018-09-20T16:47:23.590Z,98341.83
2018-09-20T16:49:35.816Z,98350.48
2018-09-20T16:51:48.099Z,98354.30
2018-09-20T16:54:00.333Z,98353.30
2018-09-20T16:56:12.560Z,98354.28
2018-09-20T16:58:24.849Z,98360.78
2018-09-20T17:00:37.068Z,98361.93
2018-09-20T17:02:49.341Z,98357.02
2018-09-20T17:05:01.612Z,98355.31
2018-09-20T17:07:13.844Z,98353.41
2018-09-20T17:09:26.101Z,98359.05
2018-09-20T17:11:38.318Z,98351.88
2018-09-20T17:13:50.630Z,98352.76
2018-09-20T17:16:02.889Z,98357.40
2018-09-20T17:18:15.123Z,98356.81
2018-09-20T17:20:27.367Z,98361.23
2018-09-20T17:22:39.668Z,98361.78
2018-09-20T17:24:51.961Z,98361.70
2018-09-20T17:27:04.254Z,98362.89
2018-09-20T17:29:16.535Z,98365.55
2018-09-20T17:31:28.766Z,98364.94
2018-09-20T17:33:41.054Z,98367.97
2018-09-20T17:35:54.667Z,98365.87
2018-09-20T17:38:07.847Z,98367.63
2018-09-20T17:40:21.672Z,98374.50
2018-09-20T17:42:34.808Z,98366.06
2018-09-20T17:44:47.238Z,98367.14
2018-09-20T17:46:59.495Z,98374.20
2018-09-20T17:49:11.777Z,98374.02
2018-09-20T17:51:24.330Z,98380.75
2018-09-20T17:53:37.002Z,98372.95
2018-09-20T17:55:49.644Z,98371.77
2018-09-20T17:58:02.072Z,98378.58
2018-09-20T18:00:14.396Z,98377.37
2018-09-20T18:02:26.629Z,98373.19
2018-09-20T18:04:38.919Z,98372.97
2018-09-20T18:06:51.207Z,98384.52
2018-09-20T18:09:05.451Z,98385.53
2018-09-20T18:11:17.803Z,98383.72
2018-09-20T18:13:30.005Z,98384.13
2018-09-20T18:15:42.322Z,98382.34
2018-09-20T18:17:54.589Z,98378.22
2018-09-20T18:20:06.818Z,98383.91
2018-09-20T18:22:19.099Z,98382.24
2018-09-20T18:24:31.404Z,98383.94
2018-09-20T18:26:47.331Z,98390.42
2018-09-20T18:28:59.626Z,98380.98
2018-09-20T18:31:11.939Z,98380.50
2018-09-20T18:33:24.178Z,98383.31
2018-09-20T18:35:36.464Z,98384.33
2018-09-20T18:37:49.004Z,98381.02
2018-09-20T18:40:01.250Z,98390.44
2018-09-20T18:42:13.595Z,98386.15
2018-09-20T18:44:25.833Z,98383.00
2018-09-20T18:46:38.237Z,98389.95
2018-09-20T18:48:50.504Z,98388.48
2018-09-20T18:51:02.721Z,98389.95
2018-09-20T18:53:15.023Z,98387.63
2018-09-20T18:55:27.318Z,98390.28
2018-09-20T18:57:39.583Z,98389.58
2018-09-20T18:59:57.417Z,98390.41
2018-09-20T19:02:09.734Z,98389.73
2018-09-20T19:04:22.045Z,98395.69
2018-09-20T19:06:34.314Z,98391.67
2018-09-20T19:08:46.543Z,98393.95
2018-09-20T19:10:58.778Z,98391.30
2018-09-20T19:13:11.073Z,98391.98
2018-09-20T19:15:23.416Z,98389.16
2018-09-20T19:17:35.744Z,98388.66
2018-09-20T19:19:47.975Z,98387.34
2018-09-20T19:22:00.281Z,98383.86
2018-09-20T19:24:12.543Z,98385.50
2018-09-20T19:26:24.832Z,98374.41
2018-09-20T19:28:37.062Z,98378.05
2018-09-20T19:30:49.318Z,98376.54
2018-09-20T19:33:01.590Z,98379.48
2018-09-20T19:35:13.908Z,98375.61
2018-09-20T19:37:26.146Z,98378.11
2018-09-20T19:39:38.409Z,98377.43
2018-09-20T19:41:50.669Z,98373.78
2018-09-20T19:44:02.951Z,98375.77
2018-09-20T19:46:15.170Z,98376.08
2018-09-20T19:48:27.524Z,98373.94
2018-09-20T19:50:39.772Z,98371.92
2018-09-20T19:52:52.049Z,98374.05
2018-09-20T19:55:04.390Z,98373.52
2018-09-20T19:57:16.888Z,98369.37
2018-09-20T19:59:29.188Z,98368.65
2018-09-20T20:01:41.438Z,98367.27
2018-09-20T20:03:53.789Z,98365.72
2018-09-20T20:06:06.066Z,98363.90
2018-09-20T20:08:18.318Z,98366.05
2018-09-20T20:10:30.577Z,98363.88
2018-09-20T20:12:42.817Z,98359.04
2018-09-20T20:14:55.053Z,98352.32
2018-09-20T20:17:07.316Z,98353.33
2018-09-20T20:19:19.624Z,98352.44
2018-09-20T20:21:31.795Z,98348.76
2018-09-20T20:23:44.035Z,98347.25
2018-09-20T20:25:56.272Z,98347.25
2018-09-20T20:28:08.480Z,98344.24
2018-09-20T20:30:20.693Z,98339.30
2018-09-20T20:32:33.005Z,98338.14
2018-09-20T20:34:45.202Z,98330.71
2018-09-20T20:36:57.483Z,98324.41
2018-09-20T20:39:10.257Z,98327.53
2018-09-20T20:41:22.474Z,98324.70
2018-09-20T20:43:34.734Z,98328.66
2018-09-20T20:45:46.935Z,98327.34
2018-09-20T20:47:59.179Z,98325.33
2018-09-20T20:50:11.391Z,98322.17
2018-09-20T20:52:23.643Z,98316.78
2018-09-20T20:54:35.882Z,98316.86
2018-09-20T20:56:48.180Z,98312.08
2018-09-20T20:59:00.475Z,98315.05
2018-09-20T21:01:19.704Z,98310.77
2018-09-20T21:03:31.991Z,98312.65
2018-09-20T21:05:44.350Z,98318.98
2018-09-20T21:07:56.540Z,98315.69
2018-09-20T21:10:08.762Z,98313.68
2018-09-20T21:12:21.000Z,98315.59
2018-09-20T21:14:33.241Z,98311.31
2018-09-20T21:16:45.508Z,98309.00
2018-09-20T21:18:57.741Z,98308.67
2018-09-20T21:21:09.965Z,98304.19
2018-09-20T21:23:22.190Z,98305.73
2018-09-20T21:25:34.444Z,98306.19
2018-09-20T21:27:46.755Z,98303.69
2018-09-20T21:29:58.985Z,98299.27
2018-09-20T21:32:11.216Z,98305.17
2018-09-20T21:34:23.483Z,98302.98
2018-09-20T21:36:35.825Z,98299.98
2018-09-20T21:38:48.042Z,98301.47
2018-09-20T21:41:00.355Z,98300.45
2018-09-20T21:43:12.566Z,98295.42
2018-09-20T21:45:24.781Z,98295.88
2018-09-20T21:47:40.495Z,98293.63
2018-09-20T21:49:52.658Z,98283.00
2018-09-20T21:52:04.887Z,98289.22
2018-09-20T21:54:17.216Z,98286.18
2018-09-20T21:56:29.418Z,98280.53
2018-09-20T21:58:46.733Z,98285.76
2018-09-20T22:01:02.042Z,98282.92
2018-09-20T22:03:14.222Z,98274.52
2018-09-20T22:05:26.453Z,98273.83
2018-09-20T22:07:38.673Z,98269.01
2018-09-20T22:09:50.894Z,98273.29
2018-09-20T22:12:03.151Z,98275.55
2018-09-20T22:14:15.388Z,98268.67
2018-09-20T22:16:27.624Z,98266.62
2018-09-20T22:18:39.895Z,98268.42
2018-09-20T22:20:52.102Z,98266.94
2018-09-20T22:23:04.416Z,98264.72
2018-09-20T22:25:16.651Z,98269.18
2018-09-20T22:27:28.915Z,98263.69
2018-09-20T22:29:41.116Z,98262.11
2018-09-20T22:31:53.338Z,98263.22
2018-09-20T22:34:05.613Z,98258.57
2018-09-20T22:36:18.075Z,98259.22
2018-09-20T22:38:30.324Z,98257.02
2018-09-20T22:40:42.548Z,98250.84
2018-09-20T22:42:54.754Z,98249.48
2018-09-20T22:45:07.641Z,98247.67
2018-09-20T22:47:19.889Z,98248.98
2018-09-20T22:49:32.094Z,98245.63
2018-09-20T22:51:44.320Z,98244.86
2018-09-20T22:53:56.533Z,98243.60
2018-09-20T22:56:08.738Z,98237.28
2018-09-20T22:58:20.984Z,98238.83
2018-09-20T23:00:33.182Z,98232.51
2018-09-20T23:02:45.417Z,98229.93
2018-09-20T23:04:57.691Z,98229.36
2018-09-20T23:07:09.940Z,98232.20
2018-09-20T23:09:22.132Z,98223.65
2018-09-20T23:11:34.416Z,98228.87
2018-09-20T23:13:46.639Z,98223.71
2018-09-20T23:15:58.821Z,98222.97
2018-09-20T23:18:11.014Z,98222.38
2018-09-20T23:20:23.282Z,98218.17
2018-09-20T23:22:35.495Z,98223.17
2018-09-20T23:24:47.712Z,98213.58
2018-09-20T23:26:59.888Z,98218.96
2018-09-20T23:29:15.919Z,98214.47
2018-09-20T23:31:28.175Z,98215.30
2018-09-20T23:33:40.391Z,98216.43
2018-09-20T23:35:52.715Z,98208.54
2018-09-20T23:38:05.034Z,98205.08
2018-09-20T23:40:17.246Z,98201.59
2018-09-20T23:42:29.438Z,98197.03
2018-09-20T23:44:41.632Z,98192.11
2018-09-20T23:46:53.856Z,98195.39
2018-09-20T23:49:06.076Z,98197.96
2018-09-20T23:51:18.271Z,98190.97
2018-09-20T23:53:30.455Z,98194.21
2018-09-20T23:55:42.717Z,98191.25
2018-09-20T23:57:54.936Z,98191.25
